KLHX

Details ICAO KLHX (LHX)
Name LA JUNTA MUNI
Region United States
Timezone America/Denver (UTC-7.0)
Plans Departing 1
Arriving 5
Stats Elevation 4,238 ft / 1,292 m (AMSL)
Location 38.049862° -103.509245°
Runways 2
Magnetic Variation 7.304° E
Sunrise 2017-12-14 14:03:56 UTC / 2017-12-14 07:03:56 Local
Sunset 2017-12-14 23:36:34 UTC / 2017-12-14 16:36:34 Local
Advertisement - Login to hide

Runways

ID Width Length Bearing (true) Bearing (mag) Surface Threshold Offset Overrun Length
08 75 ft / 23 m 6,834 ft / 2,083 m 89.80° 82.50° Asphalt 0 ft / 0 m 0 ft / 0 m
12 60 ft / 18 m 5,800 ft / 1,768 m 135.34° 128.04° Asphalt 0 ft / 0 m 0 ft / 0 m
26 75 ft / 23 m 6,834 ft / 2,083 m 269.81° 262.51° Asphalt 0 ft / 0 m 0 ft / 0 m
30 60 ft / 18 m 5,800 ft / 1,768 m 315.35° 308.05° Asphalt 0 ft / 0 m 0 ft / 0 m

Map

Weather


0- 5 10 15 20 25 30 35+ Temperature / ° C

Clouds and Precipitation
Forecast for 2017-12-15 06:00 UTC. Updated an hour ago

Ground ~20,000 ft ~40,000 ft Winds

METAR

KLHX 150353Z AUTO 26009KT FEW060 M03/M06 A3030 RMK AO2 SLP276 T10281056 TSNO $

TAF

Not found

Frequencies

Recorded 135.52 MHz ASOS
Unicom 123.00 MHz CTAF/UNICOM
Warning: Do not use this data for real-world aviation or navigation. No guarantee of current accuracy is given.